createdAt,value
2019-03-10T00:00:19.524Z,78.50
2019-03-10T00:02:47.791Z,77.90
2019-03-10T00:05:16.047Z,77.50
2019-03-10T00:07:44.313Z,77.20
2019-03-10T00:10:12.732Z,77.10
2019-03-10T00:12:41.032Z,77.20
2019-03-10T00:15:11.737Z,76.90
2019-03-10T00:17:40.078Z,76.60
2019-03-10T00:20:09.924Z,76.30
2019-03-10T00:22:38.262Z,75.90
2019-03-10T00:25:07.974Z,75.80
2019-03-10T00:27:36.253Z,76.10
2019-03-10T00:30:10.789Z,76.30
2019-03-10T00:32:39.130Z,76.50
2019-03-10T00:35:07.426Z,76.60
2019-03-10T00:37:35.813Z,77.10
2019-03-10T00:40:13.208Z,76.90
2019-03-10T00:43:05.078Z,76.80
2019-03-10T00:46:05.466Z,77.30
2019-03-10T00:48:59.837Z,77.30
2019-03-10T00:51:34.425Z,77.60
2019-03-10T00:54:02.921Z,78.20
2019-03-10T00:56:31.272Z,78.20
2019-03-10T00:58:59.565Z,78.90
2019-03-10T01:01:27.942Z,78.60
2019-03-10T01:03:56.267Z,78.10
2019-03-10T01:06:24.525Z,78.30
2019-03-10T01:08:52.784Z,78.50
2019-03-10T01:11:21.071Z,78.50
2019-03-10T01:13:49.342Z,78.50
2019-03-10T01:16:17.638Z,77.70
2019-03-10T01:18:45.898Z,77.70
2019-03-10T01:21:14.173Z,77.80
2019-03-10T01:23:42.957Z,77.30
2019-03-10T01:26:11.281Z,77.70
2019-03-10T01:28:39.553Z,77.50
2019-03-10T01:31:13.882Z,77.20
2019-03-10T01:34:07.749Z,76.90
2019-03-10T01:36:36.213Z,76.40
2019-03-10T01:39:06.435Z,76.30
2019-03-10T01:41:34.701Z,76.30
2019-03-10T01:44:02.993Z,76.30
2019-03-10T01:46:31.284Z,76.20
2019-03-10T01:48:59.553Z,76.10
2019-03-10T01:51:27.913Z,75.60
2019-03-10T01:53:56.186Z,76.00
2019-03-10T01:56:24.473Z,77.10
2019-03-10T01:58:52.802Z,77.00
2019-03-10T02:01:21.062Z,77.30
2019-03-10T02:03:49.397Z,77.30
2019-03-10T02:06:17.677Z,77.50
2019-03-10T02:08:46.027Z,77.70
2019-03-10T02:11:14.337Z,77.90
2019-03-10T02:13:42.705Z,78.10
2019-03-10T02:16:10.966Z,77.60
2019-03-10T02:18:39.261Z,77.70
2019-03-10T02:21:07.517Z,77.40
2019-03-10T02:23:35.774Z,77.40
2019-03-10T02:26:05.189Z,77.60
2019-03-10T02:28:33.521Z,77.40
2019-03-10T02:31:01.779Z,77.50
2019-03-10T02:33:30.105Z,77.80
2019-03-10T02:35:58.425Z,77.80
2019-03-10T02:38:26.702Z,78.10
2019-03-10T02:40:54.954Z,78.10
2019-03-10T02:43:23.227Z,78.40
2019-03-10T02:45:51.565Z,78.60
2019-03-10T02:48:19.896Z,78.90
2019-03-10T02:50:48.161Z,79.00
2019-03-10T02:53:16.453Z,79.10
2019-03-10T02:55:44.723Z,79.30
2019-03-10T02:58:13.061Z,79.40
2019-03-10T03:00:41.363Z,79.60
2019-03-10T03:03:09.651Z,79.80
2019-03-10T03:05:38.019Z,80.00
2019-03-10T03:08:06.324Z,80.10
2019-03-10T03:10:34.587Z,80.10
2019-03-10T03:13:02.858Z,80.00
2019-03-10T03:15:31.146Z,79.70
2019-03-10T03:17:59.418Z,79.60
2019-03-10T03:20:27.743Z,79.50
2019-03-10T03:22:56.022Z,80.00
2019-03-10T03:25:24.295Z,79.50
2019-03-10T03:27:52.887Z,79.40
2019-03-10T03:30:21.181Z,79.40
2019-03-10T03:32:49.494Z,79.70
2019-03-10T03:35:37.521Z,79.70
2019-03-10T03:38:05.813Z,79.70
2019-03-10T03:40:34.062Z,79.90
2019-03-10T03:43:02.324Z,79.90
2019-03-10T03:45:30.590Z,80.00
2019-03-10T03:47:58.852Z,80.20
2019-03-10T03:50:27.203Z,80.30
2019-03-10T03:52:55.462Z,80.40
2019-03-10T03:55:23.745Z,80.60
2019-03-10T03:57:52.070Z,80.80
2019-03-10T04:00:20.327Z,81.00
2019-03-10T04:02:48.585Z,81.20
2019-03-10T04:05:16.903Z,81.80
2019-03-10T04:07:45.150Z,81.80
2019-03-10T04:10:13.465Z,82.60
2019-03-10T04:12:41.806Z,82.50
2019-03-10T04:15:10.080Z,82.50
2019-03-10T04:17:38.337Z,82.90
2019-03-10T04:20:08.761Z,82.80
2019-03-10T04:22:37.021Z,82.40
2019-03-10T04:25:06.837Z,82.60
2019-03-10T04:27:35.112Z,82.10
2019-03-10T04:30:03.809Z,82.00
2019-03-10T04:32:32.093Z,82.30
2019-03-10T04:35:00.426Z,82.50
2019-03-10T04:37:28.768Z,83.00
2019-03-10T04:39:57.045Z,82.40
2019-03-10T04:42:25.332Z,82.30
2019-03-10T04:44:53.621Z,82.20
2019-03-10T04:47:21.871Z,82.30
2019-03-10T04:49:50.140Z,82.80
2019-03-10T04:52:18.409Z,82.80
2019-03-10T04:54:54.352Z,83.40
2019-03-10T04:57:23.484Z,83.40
2019-03-10T04:59:51.862Z,83.60
2019-03-10T05:02:20.169Z,83.50
2019-03-10T05:04:48.445Z,83.60
2019-03-10T05:07:16.720Z,83.90
2019-03-10T05:09:45.099Z,84.00
2019-03-10T05:12:13.417Z,84.50
2019-03-10T05:14:41.739Z,84.80
2019-03-10T05:17:10.081Z,84.40
2019-03-10T05:19:38.358Z,84.50
2019-03-10T05:22:06.619Z,84.70
2019-03-10T05:24:34.957Z,84.80
2019-03-10T05:27:03.195Z,85.20
2019-03-10T05:29:31.469Z,85.30
2019-03-10T05:31:59.747Z,85.60
2019-03-10T05:34:28.011Z,85.40
2019-03-10T05:36:56.339Z,85.60
2019-03-10T05:39:24.585Z,85.90
2019-03-10T05:41:52.861Z,86.00
2019-03-10T05:44:21.124Z,86.10
2019-03-10T05:46:49.397Z,86.30
2019-03-10T05:49:17.673Z,86.40
2019-03-10T05:51:45.949Z,86.30
2019-03-10T05:54:14.220Z,86.60
2019-03-10T05:56:42.538Z,86.40
2019-03-10T05:59:10.803Z,87.00
2019-03-10T06:01:39.084Z,87.90
2019-03-10T06:04:07.338Z,86.80
2019-03-10T06:06:35.677Z,86.90
2019-03-10T06:09:05.372Z,86.70
2019-03-10T06:11:33.634Z,86.70
2019-03-10T06:14:01.896Z,86.10
2019-03-10T06:16:30.174Z,85.80
2019-03-10T06:18:58.433Z,85.80
2019-03-10T06:21:26.729Z,85.10
2019-03-10T06:23:55.157Z,84.60
2019-03-10T06:26:23.463Z,84.40
2019-03-10T06:28:51.836Z,83.50
2019-03-10T06:31:21.180Z,83.20
2019-03-10T06:33:49.439Z,80.50
2019-03-10T06:36:17.700Z,74.20
2019-03-10T06:38:46.013Z,71.60
2019-03-10T06:41:14.325Z,68.00
2019-03-10T06:43:42.667Z,64.30
2019-03-10T06:46:10.979Z,57.50
2019-03-10T06:48:39.377Z,54.80
2019-03-10T06:51:07.666Z,52.70
2019-03-10T06:53:35.951Z,50.20
2019-03-10T06:56:04.285Z,49.00
2019-03-10T06:58:32.550Z,50.00
2019-03-10T07:01:00.883Z,50.50
2019-03-10T07:03:29.174Z,52.80
2019-03-10T07:05:57.489Z,54.70
2019-03-10T07:08:25.809Z,57.80
2019-03-10T07:10:54.063Z,58.20
2019-03-10T07:13:22.382Z,58.00
2019-03-10T07:15:50.640Z,58.60
2019-03-10T07:18:18.985Z,60.90
2019-03-10T07:20:47.246Z,57.40
2019-03-10T07:23:16.909Z,51.80
2019-03-10T07:25:45.169Z,47.70
2019-03-10T07:28:17.873Z,45.40
2019-03-10T07:30:47.922Z,42.80
2019-03-10T07:33:29.923Z,40.70
2019-03-10T07:36:00.089Z,38.30
2019-03-10T07:38:38.999Z,37.30
2019-03-10T07:41:28.468Z,36.10
2019-03-10T07:44:02.711Z,36.20
2019-03-10T07:46:36.196Z,35.60
2019-03-10T07:49:08.819Z,35.90
2019-03-10T07:51:41.564Z,34.70
2019-03-10T07:54:14.422Z,36.70
2019-03-10T07:57:00.615Z,34.90
2019-03-10T07:59:47.352Z,34.60
2019-03-10T08:02:33.919Z,34.50
2019-03-10T08:05:19.246Z,36.00
2019-03-10T08:07:49.216Z,34.80
2019-03-10T08:10:31.431Z,36.00
2019-03-10T08:13:10.315Z,35.50
2019-03-10T08:15:40.214Z,33.10
2019-03-10T08:18:19.424Z,32.30
2019-03-10T08:21:05.334Z,33.80
2019-03-10T08:23:44.075Z,34.50
2019-03-10T08:26:19.696Z,32.00
2019-03-10T08:28:57.186Z,33.00
2019-03-10T08:31:32.805Z,34.80
2019-03-10T08:34:18.961Z,38.60
2019-03-10T08:36:55.023Z,42.70
2019-03-10T08:39:25.099Z,45.70
2019-03-10T08:41:56.647Z,48.60
2019-03-10T08:44:26.610Z,49.90
2019-03-10T08:47:04.016Z,50.00
2019-03-10T08:49:44.751Z,50.80
2019-03-10T08:52:08.401Z,52.20
2019-03-10T08:54:41.235Z,53.00
2019-03-10T08:57:11.138Z,52.90
2019-03-10T08:59:41.078Z,52.50
2019-03-10T09:02:19.947Z,51.80
2019-03-10T09:04:56.192Z,50.80
2019-03-10T09:07:26.246Z,50.40
2019-03-10T09:10:11.280Z,50.40
2019-03-10T09:12:50.906Z,48.10
2019-03-10T09:15:26.712Z,47.30
2019-03-10T09:18:13.174Z,47.60
2019-03-10T09:20:47.526Z,47.70
2019-03-10T09:23:20.190Z,46.50
2019-03-10T09:25:53.302Z,45.90
2019-03-10T09:28:39.673Z,45.70
2019-03-10T09:31:11.284Z,46.70
2019-03-10T09:33:41.321Z,45.10
2019-03-10T09:36:19.973Z,46.10
2019-03-10T09:39:15.674Z,45.90
2019-03-10T09:41:51.777Z,45.50
2019-03-10T09:44:37.843Z,45.80
2019-03-10T09:47:10.678Z,43.60
2019-03-10T09:49:46.577Z,43.80
2019-03-10T09:52:16.598Z,42.60
2019-03-10T09:55:00.963Z,43.50
2019-03-10T09:57:39.332Z,43.30
2019-03-10T10:00:17.619Z,41.70
2019-03-10T10:02:53.326Z,41.80
2019-03-10T10:05:29.637Z,42.10
2019-03-10T10:08:04.081Z,40.20
2019-03-10T10:10:34.747Z,38.90
2019-03-10T10:13:08.339Z,39.40
2019-03-10T10:15:44.607Z,38.90
2019-03-10T10:18:14.676Z,37.40
2019-03-10T10:20:47.270Z,35.10
2019-03-10T10:23:20.237Z,34.60
2019-03-10T10:25:50.238Z,34.10
2019-03-10T10:28:20.318Z,34.10
2019-03-10T10:30:59.483Z,36.50
2019-03-10T10:33:44.533Z,37.30
2019-03-10T10:36:32.131Z,37.60
2019-03-10T10:39:09.826Z,37.10
2019-03-10T10:41:51.887Z,37.10
2019-03-10T10:44:31.698Z,38.40
2019-03-10T10:47:01.655Z,38.50
2019-03-10T10:49:31.568Z,38.50
2019-03-10T10:52:16.491Z,37.50
2019-03-10T10:54:52.223Z,36.60
2019-03-10T10:57:41.557Z,36.40
2019-03-10T11:00:24.519Z,36.70
2019-03-10T11:02:54.625Z,38.10
2019-03-10T11:05:35.589Z,38.40
2019-03-10T11:08:11.626Z,37.40
2019-03-10T11:10:41.626Z,36.80
2019-03-10T11:13:21.109Z,36.40
2019-03-10T11:16:05.850Z,32.60
2019-03-10T11:18:38.458Z,31.80
2019-03-10T11:21:14.277Z,30.70
2019-03-10T11:23:44.334Z,30.80
2019-03-10T11:26:23.639Z,31.80
2019-03-10T11:29:05.422Z,32.00
2019-03-10T11:31:38.377Z,32.50
2019-03-10T11:34:20.586Z,32.40
2019-03-10T11:36:53.739Z,32.00
2019-03-10T11:42:37.801Z,30.40
2019-03-10T11:45:14.007Z,28.80
2019-03-10T11:47:53.070Z,30.30
2019-03-10T11:50:23.183Z,30.70
2019-03-10T11:53:06.552Z,32.40
2019-03-10T11:55:39.278Z,35.20
2019-03-10T11:58:11.728Z,36.60
2019-03-10T12:00:41.665Z,35.30
2019-03-10T12:03:27.767Z,35.70
2019-03-10T12:05:59.366Z,37.00
2019-03-10T12:08:32.161Z,39.80
2019-03-10T12:11:00.680Z,43.20
2019-03-10T12:13:29.023Z,46.00
2019-03-10T12:15:57.473Z,47.00
2019-03-10T12:18:25.772Z,46.90
2019-03-10T12:20:54.209Z,47.50
2019-03-10T12:23:22.508Z,46.80
2019-03-10T12:25:53.900Z,45.10
2019-03-10T12:28:23.895Z,43.90
2019-03-10T12:30:52.277Z,43.50
2019-03-10T12:33:22.487Z,42.10
2019-03-10T12:35:50.555Z,40.50
2019-03-10T12:38:18.854Z,41.00
2019-03-10T12:40:48.456Z,39.20
2019-03-10T12:43:19.494Z,39.40
2019-03-10T12:45:47.942Z,38.90
2019-03-10T12:48:16.333Z,37.50
2019-03-10T12:50:44.696Z,38.20
2019-03-10T12:53:12.953Z,37.00
2019-03-10T12:55:41.646Z,38.10
2019-03-10T12:58:10.004Z,37.60
2019-03-10T13:00:39.170Z,36.80
2019-03-10T13:03:07.506Z,38.20
2019-03-10T13:05:35.829Z,38.30
2019-03-10T13:08:04.167Z,38.20
2019-03-10T13:10:32.498Z,38.10
2019-03-10T13:13:00.868Z,39.60
2019-03-10T13:15:29.220Z,39.60
2019-03-10T13:17:57.519Z,39.00
2019-03-10T13:20:28.448Z,39.30
2019-03-10T13:22:55.840Z,39.40
2019-03-10T13:25:24.203Z,39.00
2019-03-10T13:27:52.549Z,39.80
2019-03-10T13:30:20.859Z,40.40
2019-03-10T13:32:49.380Z,40.00
2019-03-10T13:35:17.753Z,38.80
2019-03-10T13:37:49.002Z,39.10
2019-03-10T13:40:17.385Z,38.70
2019-03-10T13:42:47.294Z,38.70
2019-03-10T13:45:17.915Z,38.10
2019-03-10T13:47:46.347Z,39.30
2019-03-10T13:50:16.391Z,39.50
2019-03-10T13:52:44.863Z,39.80
2019-03-10T13:55:15.108Z,40.30
2019-03-10T13:57:54.809Z,40.40
2019-03-10T14:00:40.100Z,40.50
2019-03-10T14:03:01.793Z,41.20
2019-03-10T14:05:33.007Z,41.60
2019-03-10T14:08:01.426Z,40.70
2019-03-10T14:10:29.739Z,40.60
2019-03-10T14:12:59.757Z,41.90
2019-03-10T14:15:33.219Z,42.90
2019-03-10T14:18:01.588Z,42.70
2019-03-10T14:20:29.870Z,43.30
2019-03-10T14:22:58.166Z,44.00
2019-03-10T14:25:29.442Z,44.30
2019-03-10T14:28:00.258Z,44.70
2019-03-10T14:30:32.260Z,44.80
2019-03-10T14:33:00.305Z,44.90
2019-03-10T14:35:28.587Z,44.70
2019-03-10T14:37:57.043Z,45.10
2019-03-10T14:40:25.391Z,45.40
2019-03-10T14:42:54.310Z,45.60
2019-03-10T14:45:27.142Z,47.00
2019-03-10T14:47:55.818Z,46.20
2019-03-10T14:50:25.893Z,47.00
2019-03-10T14:52:54.301Z,46.80
2019-03-10T14:55:24.499Z,47.90
2019-03-10T14:57:52.783Z,47.70
2019-03-10T15:00:22.943Z,47.20
2019-03-10T15:02:53.229Z,45.60
2019-03-10T15:05:21.647Z,44.70
2019-03-10T15:07:51.812Z,50.40
2019-03-10T15:10:27.093Z,54.60
2019-03-10T15:12:55.417Z,58.50
2019-03-10T15:15:23.994Z,63.00
2019-03-10T15:17:52.450Z,65.40
2019-03-10T15:20:21.708Z,66.50
2019-03-10T15:22:50.396Z,68.00
2019-03-10T15:25:21.133Z,71.50
2019-03-10T15:27:49.605Z,71.30
2019-03-10T15:30:27.389Z,72.70
2019-03-10T15:32:55.855Z,71.60
2019-03-10T15:35:24.469Z,72.80
2019-03-10T15:37:53.037Z,73.40
2019-03-10T15:40:21.430Z,73.40
2019-03-10T15:42:52.931Z,72.60
2019-03-10T15:45:21.283Z,73.10
2019-03-10T15:47:49.592Z,71.70
2019-03-10T15:50:23.841Z,71.90
2019-03-10T15:52:52.151Z,71.80
2019-03-10T15:55:20.438Z,71.90
2019-03-10T15:57:50.440Z,72.50
2019-03-10T16:00:20.723Z,71.50
2019-03-10T16:02:49.145Z,72.20
2019-03-10T16:05:17.623Z,71.50
2019-03-10T16:07:45.932Z,71.20
2019-03-10T16:10:14.930Z,71.00
2019-03-10T16:12:43.265Z,71.00
2019-03-10T16:15:19.961Z,70.70
2019-03-10T16:17:48.571Z,71.50
2019-03-10T16:20:16.930Z,72.20
2019-03-10T16:22:45.398Z,73.20
2019-03-10T16:25:14.956Z,72.70
2019-03-10T16:27:43.319Z,72.50
2019-03-10T16:30:16.616Z,72.20
2019-03-10T16:32:45.028Z,71.30
2019-03-10T16:35:18.056Z,71.20
2019-03-10T16:37:46.509Z,71.60
2019-03-10T16:40:21.803Z,73.10
2019-03-10T16:42:50.177Z,72.60
2019-03-10T16:45:19.998Z,72.60
2019-03-10T16:47:48.278Z,72.60
2019-03-10T16:50:19.230Z,72.60
2019-03-10T16:52:49.762Z,71.80
2019-03-10T16:55:18.087Z,71.80
2019-03-10T16:57:46.395Z,71.90
2019-03-10T17:00:15.285Z,72.70
2019-03-10T17:02:43.747Z,73.90
2019-03-10T17:05:16.116Z,73.00
2019-03-10T17:07:44.617Z,73.60
2019-03-10T17:10:20.345Z,74.80
2019-03-10T17:12:48.871Z,75.00
2019-03-10T17:15:18.683Z,74.90
2019-03-10T17:17:47.052Z,74.60
2019-03-10T17:20:16.928Z,74.80
2019-03-10T17:22:45.450Z,74.20
2019-03-10T17:25:15.502Z,74.40
2019-03-10T17:27:45.549Z,75.20
2019-03-10T17:30:16.909Z,74.90
2019-03-10T17:32:45.403Z,75.40
2019-03-10T17:35:14.175Z,75.60
2019-03-10T17:37:42.523Z,76.10
2019-03-10T17:40:19.090Z,76.60
2019-03-10T17:42:55.071Z,76.30
2019-03-10T17:45:25.538Z,76.90
2019-03-10T17:47:54.189Z,77.20
2019-03-10T17:50:22.594Z,76.90
2019-03-10T17:52:51.464Z,76.20
2019-03-10T17:55:25.180Z,75.60
2019-03-10T17:57:53.462Z,75.50
2019-03-10T18:00:38.144Z,75.50
2019-03-10T18:03:06.471Z,75.00
2019-03-10T18:05:34.970Z,75.20
2019-03-10T18:08:03.468Z,74.80
2019-03-10T18:10:31.813Z,74.70
2019-03-10T18:13:00.187Z,74.70
2019-03-10T18:15:29.043Z,74.70
2019-03-10T18:18:01.956Z,74.80
2019-03-10T18:20:30.287Z,75.00
2019-03-10T18:23:00.303Z,74.70
2019-03-10T18:25:28.656Z,75.20
2019-03-10T18:27:56.925Z,75.60
2019-03-10T18:30:28.120Z,75.20
2019-03-10T18:32:56.431Z,74.70
2019-03-10T18:35:24.705Z,74.90
2019-03-10T18:37:53.002Z,75.10
2019-03-10T18:40:23.414Z,74.70
2019-03-10T18:42:51.897Z,74.50
2019-03-10T18:45:20.800Z,74.70
2019-03-10T18:47:49.235Z,74.30
2019-03-10T18:50:25.333Z,74.00
2019-03-10T18:52:53.667Z,73.70
2019-03-10T18:55:22.116Z,73.60
2019-03-10T18:57:50.912Z,74.20
2019-03-10T19:00:27.569Z,74.40
2019-03-10T19:02:58.515Z,74.40
2019-03-10T19:05:26.872Z,74.40
2019-03-10T19:07:55.211Z,73.40
2019-03-10T19:10:23.678Z,72.60
2019-03-10T19:12:52.168Z,72.40
2019-03-10T19:15:25.210Z,71.80
2019-03-10T19:17:53.558Z,72.10
2019-03-10T19:20:21.916Z,72.30
2019-03-10T19:22:50.460Z,72.10
2019-03-10T19:25:18.870Z,72.30
2019-03-10T19:27:47.157Z,72.10
2019-03-10T19:30:17.761Z,72.30
2019-03-10T19:32:46.022Z,72.80
2019-03-10T19:35:14.425Z,72.80
2019-03-10T19:37:42.783Z,72.80
2019-03-10T19:40:14.460Z,73.10
2019-03-10T19:42:42.717Z,73.00
2019-03-10T19:45:13.807Z,73.20
2019-03-10T19:47:42.144Z,74.20
2019-03-10T19:50:13.114Z,74.10
2019-03-10T19:52:41.366Z,74.50
2019-03-10T19:55:14.541Z,74.40
2019-03-10T19:57:42.851Z,74.50
2019-03-10T20:00:13.831Z,74.20
2019-03-10T20:02:42.107Z,74.10
2019-03-10T20:05:10.423Z,73.60
2019-03-10T20:07:38.714Z,74.10
2019-03-10T20:10:10.301Z,73.50
2019-03-10T20:12:38.627Z,73.50
2019-03-10T20:15:12.503Z,73.60
2019-03-10T20:17:40.762Z,73.50
2019-03-10T20:20:12.350Z,73.50
2019-03-10T20:22:40.674Z,74.10
2019-03-10T20:25:11.050Z,74.10
2019-03-10T20:27:39.313Z,74.20
2019-03-10T20:30:19.521Z,74.50
2019-03-10T20:32:47.800Z,75.20
2019-03-10T20:35:16.168Z,75.00
2019-03-10T20:37:44.460Z,75.20
2019-03-10T20:40:21.634Z,75.80
2019-03-10T20:42:50.259Z,75.80
2019-03-10T20:45:18.623Z,75.50
2019-03-10T20:47:46.884Z,75.80
2019-03-10T20:50:20.186Z,76.60
2019-03-10T20:52:48.469Z,77.00
2019-03-10T20:55:16.817Z,77.00
2019-03-10T20:57:45.143Z,77.20
2019-03-10T21:00:20.811Z,77.10
2019-03-10T21:02:49.105Z,77.30
2019-03-10T21:05:17.466Z,77.00
2019-03-10T21:07:45.799Z,77.50
2019-03-10T21:10:19.326Z,77.60
2019-03-10T21:12:47.655Z,77.80
2019-03-10T21:15:19.684Z,77.80
2019-03-10T21:17:47.999Z,77.80
2019-03-10T21:20:23.854Z,77.50
2019-03-10T21:22:52.181Z,77.60
2019-03-10T21:25:33.095Z,77.40
2019-03-10T21:28:01.534Z,77.70
2019-03-10T21:30:33.147Z,78.00
2019-03-10T21:33:01.527Z,78.10
2019-03-10T21:35:29.979Z,79.10
2019-03-10T21:37:58.379Z,78.00
2019-03-10T21:40:31.237Z,78.10
2019-03-10T21:42:59.687Z,78.20
2019-03-10T21:45:28.049Z,78.30
2019-03-10T21:47:56.432Z,78.20
2019-03-10T21:50:24.753Z,78.60
2019-03-10T21:52:53.044Z,78.00
2019-03-10T21:55:21.376Z,78.10
2019-03-10T21:57:49.653Z,78.10
2019-03-10T22:00:21.011Z,78.00
2019-03-10T22:02:49.285Z,78.30
2019-03-10T22:05:17.947Z,78.50
2019-03-10T22:07:46.298Z,79.00
2019-03-10T22:10:26.109Z,79.20
2019-03-10T22:12:46.075Z,79.20
2019-03-10T22:15:15.742Z,79.00
2019-03-10T22:17:44.017Z,79.10
2019-03-10T22:20:14.277Z,79.60
2019-03-10T22:22:48.288Z,79.40
2019-03-10T22:25:13.477Z,79.50
2019-03-10T22:27:41.876Z,79.30
2019-03-10T22:30:15.316Z,79.30
2019-03-10T22:32:43.597Z,79.50
2019-03-10T22:35:11.917Z,79.50
2019-03-10T22:37:40.180Z,79.40
2019-03-10T22:40:10.719Z,79.50
2019-03-10T22:42:39.000Z,79.50
2019-03-10T22:45:18.434Z,79.70
2019-03-10T22:47:46.679Z,79.40
2019-03-10T22:50:15.797Z,79.00
2019-03-10T22:52:44.118Z,79.00
2019-03-10T22:55:17.094Z,78.90
2019-03-10T22:57:45.408Z,78.80
2019-03-10T23:00:43.822Z,78.90
2019-03-10T23:03:12.143Z,78.90
2019-03-10T23:05:41.545Z,78.60
2019-03-10T23:08:10.223Z,78.10
2019-03-10T23:10:38.566Z,78.10
2019-03-10T23:13:06.834Z,78.00
2019-03-10T23:15:35.114Z,77.70
2019-03-10T23:18:03.390Z,77.10
2019-03-10T23:20:31.664Z,77.20
2019-03-10T23:23:00.036Z,76.90
2019-03-10T23:25:28.362Z,77.00
2019-03-10T23:27:56.608Z,76.80
2019-03-10T23:30:24.878Z,77.10
2019-03-10T23:32:53.254Z,77.80
2019-03-10T23:35:21.561Z,77.80
2019-03-10T23:37:49.819Z,77.90
2019-03-10T23:40:20.810Z,77.80
2019-03-10T23:42:49.121Z,78.00
2019-03-10T23:45:18.171Z,78.30
2019-03-10T23:47:46.665Z,78.70
2019-03-10T23:50:16.048Z,79.20
2019-03-10T23:52:44.297Z,79.30
2019-03-10T23:55:13.302Z,79.70
2019-03-10T23:57:41.633Z,79.50
